Time;durP1;ratioP1;P1;durP2;ratioP2;P2;SDS_P1;SDS_P2;PMS_P1;PMS_P2;Temp;Humidity;BMP_temperature;BMP_pressure;BME280_temperature;BME280_humidity;BME280_pressure;Samples;Min_cycle;Max_cycle;Signal;HPM_P1;HPM_P2
2023/01/23 00:02:05;;;;;;;1.92;1.20;;;;;;;;;;5071529;28;20048;-47
2023/01/23 00:04:31;;;;;;;3.05;1.30;;;;;;;;;;5069951;28;20093;-46
2023/01/23 00:06:57;;;;;;;1.58;1.00;;;;;;;;;;5071768;28;20035;-45
2023/01/23 00:09:23;;;;;;;1.63;1.23;;;;;;;;;;5071277;28;20461;-45
2023/01/23 00:11:49;;;;;;;1.67;1.30;;;;;;;;;;5070951;28;20020;-48
2023/01/23 00:14:16;;;;;;;1.10;0.95;;;;;;;;;;5070967;28;20021;-44
2023/01/23 00:16:42;;;;;;;2.60;1.20;;;;;;;;;;5061224;28;20056;-46
2023/01/23 00:19:09;;;;;;;2.03;1.45;;;;;;;;;;5072225;28;20085;-47
2023/01/23 00:21:35;;;;;;;1.25;1.02;;;;;;;;;;5071677;28;20541;-46
2023/01/23 00:24:01;;;;;;;1.98;1.60;;;;;;;;;;5072475;28;20095;-45
2023/01/23 00:26:28;;;;;;;1.38;1.13;;;;;;;;;;5071652;28;20028;-44
2023/01/23 00:28:55;;;;;;;2.50;1.33;;;;;;;;;;5072249;28;20017;-48
2023/01/23 00:31:23;;;;;;;2.78;1.33;;;;;;;;;;5072561;28;20024;-45
2023/01/23 00:33:52;;;;;;;2.10;1.40;;;;;;;;;;5065490;28;20021;-46
2023/01/23 00:36:18;;;;;;;1.65;1.10;;;;;;;;;;5072236;28;20082;-50
2023/01/23 00:38:44;;;;;;;1.88;1.15;;;;;;;;;;5071256;28;20679;-46
2023/01/23 00:41:11;;;;;;;1.98;1.27;;;;;;;;;;5067015;28;20112;-45
2023/01/23 00:43:37;;;;;;;1.77;1.20;;;;;;;;;;5063982;28;20423;-45
2023/01/23 00:46:03;;;;;;;1.70;1.20;;;;;;;;;;5071796;28;20031;-48
2023/01/23 00:48:30;;;;;;;2.17;1.15;;;;;;;;;;5075755;28;20071;-45
2023/01/23 00:50:56;;;;;;;2.42;1.80;;;;;;;;;;5068108;28;20481;-46
2023/01/23 00:53:22;;;;;;;1.95;1.50;;;;;;;;;;5072385;28;20032;-47
2023/01/23 00:55:48;;;;;;;1.35;1.20;;;;;;;;;;5070683;28;20031;-45
2023/01/23 00:58:14;;;;;;;1.27;1.10;;;;;;;;;;5071848;28;20473;-45
2023/01/23 01:00:40;;;;;;;2.22;1.42;;;;;;;;;;5069711;28;20032;-45
2023/01/23 01:03:06;;;;;;;2.00;0.98;;;;;;;;;;5072245;28;20020;-44
2023/01/23 01:05:33;;;;;;;1.98;1.38;;;;;;;;;;5070494;28;20193;-45
2023/01/23 01:07:59;;;;;;;2.45;1.45;;;;;;;;;;5066646;28;20097;-47
2023/01/23 01:10:28;;;;;;;1.90;1.08;;;;;;;;;;5071409;28;20103;-44
2023/01/23 01:12:54;;;;;;;2.25;1.40;;;;;;;;;;5071693;28;20024;-45
2023/01/23 01:15:20;;;;;;;2.15;1.50;;;;;;;;;;5071969;28;20366;-45
2023/01/23 01:17:46;;;;;;;2.45;1.30;;;;;;;;;;5070900;28;20096;-45
2023/01/23 01:20:12;;;;;;;1.45;0.85;;;;;;;;;;5071513;28;20028;-46
2023/01/23 01:22:39;;;;;;;2.42;1.23;;;;;;;;;;5064886;28;20024;-46
2023/01/23 01:25:05;;;;;;;1.30;1.00;;;;;;;;;;5071447;28;20040;-45
2023/01/23 01:27:31;;;;;;;1.63;1.02;;;;;;;;;;5070703;28;20108;-48
2023/01/23 01:29:57;;;;;;;1.25;1.10;;;;;;;;;;5071291;28;20051;-44
2023/01/23 01:32:23;;;;;;;1.20;1.10;;;;;;;;;;5071855;28;20024;-45
2023/01/23 01:34:50;;;;;;;1.50;1.10;;;;;;;;;;5070869;28;20028;-44
2023/01/23 01:37:16;;;;;;;1.90;1.10;;;;;;;;;;5071728;28;20024;-45
2023/01/23 01:39:42;;;;;;;1.75;1.05;;;;;;;;;;5064797;28;20037;-45
2023/01/23 01:42:08;;;;;;;1.90;1.20;;;;;;;;;;5071697;28;20092;-45
2023/01/23 01:44:54;;;;;;;1.85;1.30;;;;;;;;;;5070194;28;20444;-45
2023/01/23 01:47:20;;;;;;;1.20;1.10;;;;;;;;;;5071561;28;20040;-46
2023/01/23 01:49:47;;;;;;;1.30;0.95;;;;;;;;;;5069850;28;20099;-47
2023/01/23 01:52:13;;;;;;;1.20;1.05;;;;;;;;;;5071328;28;20021;-48
2023/01/23 01:54:39;;;;;;;2.22;1.27;;;;;;;;;;5070296;28;20016;-46
2023/01/23 01:57:05;;;;;;;1.13;0.90;;;;;;;;;;5065648;28;20032;-49
2023/01/23 01:59:34;;;;;;;2.03;1.27;;;;;;;;;;5069790;28;20122;-46
2023/01/23 02:02:04;;;;;;;1.95;1.10;;;;;;;;;;5071515;28;20021;-45
2023/01/23 02:04:35;;;;;;;2.35;1.10;;;;;;;;;;5069787;28;20086;-46
2023/01/23 02:07:02;;;;;;;1.50;1.30;;;;;;;;;;5071167;28;20067;-48
2023/01/23 02:09:32;;;;;;;1.80;1.35;;;;;;;;;;5070425;28;20032;-45
2023/01/23 02:11:58;;;;;;;1.23;1.13;;;;;;;;;;5072862;28;20023;-47
2023/01/23 02:14:24;;;;;;;1.58;1.20;;;;;;;;;;5068116;28;20025;-47
2023/01/23 02:16:51;;;;;;;1.98;1.52;;;;;;;;;;5074496;28;20058;-44
2023/01/23 02:19:20;;;;;;;1.83;1.55;;;;;;;;;;5074826;28;20031;-50
2023/01/23 02:21:47;;;;;;;1.38;1.10;;;;;;;;;;5074042;28;20635;-48
2023/01/23 02:24:20;;;;;;;1.23;1.10;;;;;;;;;;5074529;28;20027;-46
2023/01/23 02:26:46;;;;;;;1.83;1.10;;;;;;;;;;5074133;28;20210;-46
2023/01/23 02:29:12;;;;;;;1.48;1.20;;;;;;;;;;5074380;28;20025;-45
2023/01/23 02:31:41;;;;;;;1.73;0.98;;;;;;;;;;5070541;28;20048;-47
2023/01/23 02:34:10;;;;;;;1.85;1.10;;;;;;;;;;5074480;28;20025;-46
2023/01/23 02:36:36;;;;;;;1.27;1.13;;;;;;;;;;5074049;28;20020;-46
2023/01/23 02:39:05;;;;;;;1.35;1.25;;;;;;;;;;5074129;28;20476;-45
2023/01/23 02:41:39;;;;;;;1.15;1.00;;;;;;;;;;5073999;28;20431;-45
2023/01/23 02:44:27;;;;;;;1.48;1.10;;;;;;;;;;5074295;28;20028;-48
2023/01/23 02:46:57;;;;;;;1.52;1.13;;;;;;;;;;5073546;28;20032;-45
2023/01/23 02:49:23;;;;;;;1.20;1.02;;;;;;;;;;5065269;28;20107;-45
2023/01/23 02:51:50;;;;;;;2.83;1.20;;;;;;;;;;5074002;28;20453;-50
2023/01/23 02:54:17;;;;;;;1.20;1.00;;;;;;;;;;5074001;28;20050;-45
2023/01/23 02:56:43;;;;;;;1.55;1.10;;;;;;;;;;5073617;28;20025;-48
2023/01/23 03:01:54;;;;;;;1.08;0.98;;;;;;;;;;5074151;28;20158;-46
2023/01/23 03:04:20;;;;;;;1.45;1.00;;;;;;;;;;5070259;28;20968;-45
2023/01/23 03:06:47;;;;;;;4.22;1.20;;;;;;;;;;5070995;28;20027;-45
2023/01/23 03:09:14;;;;;;;0.98;0.85;;;;;;;;;;5073764;28;20016;-46
2023/01/23 03:11:41;;;;;;;2.22;1.27;;;;;;;;;;5073580;28;20027;-45
2023/01/23 03:14:08;;;;;;;1.20;1.10;;;;;;;;;;5073601;28;20048;-48
2023/01/23 03:16:35;;;;;;;1.58;1.02;;;;;;;;;;5073030;28;20384;-46
2023/01/23 03:19:07;;;;;;;1.40;0.90;;;;;;;;;;5073883;28;20024;-46
2023/01/23 03:21:32;;;;;;;;;;;;;;;;;;5067553;28;20036;-47
2023/01/23 03:23:58;;;;;;;1.13;1.00;;;;;;;;;;5072405;28;19904;-45
2023/01/23 03:26:25;;;;;;;1.67;1.30;;;;;;;;;;5073013;28;20036;-44
2023/01/23 03:31:35;;;;;;;1.60;1.33;;;;;;;;;;5067198;28;20032;-49
2023/01/23 03:34:01;;;;;;;2.00;1.33;;;;;;;;;;5071891;28;20385;-48
2023/01/23 03:36:27;;;;;;;1.95;1.05;;;;;;;;;;5071948;28;20058;-44
2023/01/23 03:41:40;;;;;;;1.40;1.10;;;;;;;;;;5067796;28;20036;-45
2023/01/23 03:44:07;;;;;;;1.73;1.20;;;;;;;;;;5071839;28;20020;-47
2023/01/23 03:46:33;;;;;;;1.33;0.95;;;;;;;;;;5071301;28;20020;-48
2023/01/23 03:48:59;;;;;;;1.30;1.20;;;;;;;;;;5071317;28;20024;-49
2023/01/23 03:51:25;;;;;;;1.23;0.90;;;;;;;;;;5071116;28;20104;-44
2023/01/23 03:53:50;;;;;;;1.98;1.60;;;;;;;;;;5070938;28;20052;-46
2023/01/23 03:56:16;;;;;;;1.33;1.15;;;;;;;;;;5066736;28;20113;-44
2023/01/23 03:58:42;;;;;;;1.02;0.93;;;;;;;;;;5068227;28;20028;-45
2023/01/23 04:01:09;;;;;;;1.55;1.10;;;;;;;;;;5071676;28;20024;-44
2023/01/23 04:03:35;;;;;;;1.90;1.17;;;;;;;;;;5067736;28;20028;-44
2023/01/23 04:06:01;;;;;;;1.65;1.10;;;;;;;;;;5059280;28;20042;-44
2023/01/23 04:08:28;;;;;;;1.13;0.95;;;;;;;;;;5058961;28;20547;-43
2023/01/23 04:11:01;;;;;;;1.58;1.30;;;;;;;;;;5057869;28;20439;-45
2023/01/23 04:13:27;;;;;;;2.88;1.80;;;;;;;;;;5053503;28;20128;-44
2023/01/23 04:15:53;;;;;;;2.30;1.20;;;;;;;;;;5057962;28;20548;-44
2023/01/23 04:18:19;;;;;;;1.77;1.58;;;;;;;;;;5059444;28;20032;-44
2023/01/23 04:20:45;;;;;;;1.20;1.10;;;;;;;;;;5053397;28;20093;-44
2023/01/23 04:23:11;;;;;;;1.00;0.90;;;;;;;;;;5037267;28;20036;-44
2023/01/23 04:25:37;;;;;;;1.48;1.15;;;;;;;;;;5031477;28;20375;-45
2023/01/23 04:28:03;;;;;;;1.35;1.10;;;;;;;;;;5032929;28;20033;-44
2023/01/23 04:30:29;;;;;;;1.20;1.10;;;;;;;;;;5036144;28;20029;-44
2023/01/23 04:32:54;;;;;;;1.50;1.40;;;;;;;;;;5052557;28;20021;-46
2023/01/23 04:35:20;;;;;;;1.10;1.00;;;;;;;;;;5050254;28;20032;-46
2023/01/23 04:37:46;;;;;;;2.85;1.42;;;;;;;;;;5037154;28;20622;-49
2023/01/23 04:40:12;;;;;;;1.38;1.20;;;;;;;;;;5037060;28;20035;-49
2023/01/23 04:42:38;;;;;;;2.25;1.05;;;;;;;;;;5031767;28;20049;-43
2023/01/23 04:45:05;;;;;;;1.70;1.35;;;;;;;;;;5032003;28;20060;-46
2023/01/23 04:47:31;;;;;;;1.40;1.10;;;;;;;;;;5030855;28;20038;-46
2023/01/23 04:49:57;;;;;;;1.58;1.23;;;;;;;;;;5053599;28;20070;-44
2023/01/23 04:52:23;;;;;;;1.92;1.30;;;;;;;;;;5043911;28;20029;-47
2023/01/23 04:54:49;;;;;;;1.30;1.20;;;;;;;;;;5031307;28;20026;-46
2023/01/23 04:57:15;;;;;;;1.13;1.00;;;;;;;;;;5032209;28;20025;-47
2023/01/23 04:59:41;;;;;;;1.48;1.10;;;;;;;;;;5031002;28;20032;-45
2023/01/23 05:02:07;;;;;;;1.77;1.20;;;;;;;;;;5032555;28;20419;-49
2023/01/23 05:04:33;;;;;;;1.20;1.00;;;;;;;;;;5035895;28;20489;-47
2023/01/23 05:06:59;;;;;;;1.85;1.33;;;;;;;;;;5066743;28;20074;-45
2023/01/23 05:09:25;;;;;;;1.50;1.23;;;;;;;;;;5071397;28;20376;-43
2023/01/23 05:11:51;;;;;;;1.40;1.00;;;;;;;;;;5071368;28;20023;-50
2023/01/23 05:14:17;;;;;;;1.70;1.30;;;;;;;;;;5071405;28;20025;-50
2023/01/23 05:16:43;;;;;;;1.77;1.33;;;;;;;;;;5070902;28;20074;-48
2023/01/23 05:19:08;;;;;;;1.23;1.10;;;;;;;;;;5071136;28;20036;-47
2023/01/23 05:21:34;;;;;;;1.52;1.30;;;;;;;;;;5070985;28;20025;-46
2023/01/23 05:24:00;;;;;;;1.58;1.45;;;;;;;;;;5065655;28;20530;-46
2023/01/23 05:26:26;;;;;;;1.83;1.52;;;;;;;;;;5071049;28;20029;-44
2023/01/23 05:28:52;;;;;;;1.73;1.33;;;;;;;;;;5070857;28;19916;-46
2023/01/23 05:31:18;;;;;;;1.70;1.55;;;;;;;;;;5071829;28;20036;-45
2023/01/23 05:33:44;;;;;;;1.52;1.10;;;;;;;;;;5070347;28;20595;-47
2023/01/23 05:36:10;;;;;;;1.60;1.20;;;;;;;;;;5071462;28;20017;-46
2023/01/23 05:38:36;;;;;;;1.50;1.10;;;;;;;;;;5068377;28;20033;-44
2023/01/23 05:41:02;;;;;;;1.48;1.38;;;;;;;;;;5068164;28;20079;-45
2023/01/23 05:43:28;;;;;;;1.85;1.20;;;;;;;;;;5070883;28;20044;-44
2023/01/23 05:45:54;;;;;;;1.42;1.15;;;;;;;;;;5071120;28;20105;-47
2023/01/23 05:48:20;;;;;;;2.13;1.48;;;;;;;;;;5075254;28;20029;-46
2023/01/23 05:50:46;;;;;;;2.13;1.17;;;;;;;;;;5074257;28;20583;-46
2023/01/23 05:53:12;;;;;;;1.45;1.15;;;;;;;;;;5075732;28;20024;-49
2023/01/23 05:55:38;;;;;;;2.00;1.55;;;;;;;;;;5074341;28;20017;-48
2023/01/23 05:58:04;;;;;;;1.50;1.27;;;;;;;;;;5070641;28;20035;-45
2023/01/23 06:00:30;;;;;;;1.40;1.27;;;;;;;;;;5074172;28;20016;-48
2023/01/23 06:02:56;;;;;;;1.88;1.63;;;;;;;;;;5061851;28;20025;-48
2023/01/23 06:05:22;;;;;;;1.40;1.25;;;;;;;;;;5071813;28;20472;-45
2023/01/23 06:07:48;;;;;;;1.75;1.65;;;;;;;;;;5074308;28;20036;-45
2023/01/23 06:10:14;;;;;;;1.50;1.10;;;;;;;;;;5074144;28;20104;-46
2023/01/23 06:12:40;;;;;;;2.13;1.48;;;;;;;;;;5068748;28;20040;-45
2023/01/23 06:15:06;;;;;;;2.30;1.60;;;;;;;;;;5070644;28;20517;-47
2023/01/23 06:17:32;;;;;;;1.67;1.30;;;;;;;;;;5073842;28;20381;-45
2023/01/23 06:19:58;;;;;;;6.43;1.27;;;;;;;;;;5073466;28;20078;-46
2023/01/23 06:22:24;;;;;;;1.85;1.40;;;;;;;;;;5074010;28;20381;-44
2023/01/23 06:24:51;;;;;;;4.78;1.50;;;;;;;;;;5074311;28;20050;-45
2023/01/23 06:27:17;;;;;;;2.75;1.58;;;;;;;;;;5074735;28;20075;-45
2023/01/23 06:29:43;;;;;;;6.38;1.48;;;;;;;;;;5068222;28;20369;-49
2023/01/23 06:32:09;;;;;;;3.70;1.30;;;;;;;;;;5068803;28;20035;-47
2023/01/23 06:34:35;;;;;;;1.50;1.27;;;;;;;;;;5073516;28;20028;-47
2023/01/23 06:37:01;;;;;;;3.63;1.45;;;;;;;;;;5074638;28;20027;-47
2023/01/23 06:39:29;;;;;;;3.08;1.63;;;;;;;;;;5073837;28;20028;-44
2023/01/23 06:41:55;;;;;;;4.70;1.33;;;;;;;;;;5066653;28;20029;-46
2023/01/23 06:44:21;;;;;;;2.08;1.45;;;;;;;;;;5074062;28;20039;-48
2023/01/23 06:46:47;;;;;;;2.58;1.50;;;;;;;;;;5073608;28;20032;-45
2023/01/23 06:49:13;;;;;;;1.67;1.38;;;;;;;;;;5066635;28;20082;-48
2023/01/23 06:51:39;;;;;;;3.20;1.98;;;;;;;;;;5073309;28;20081;-46
2023/01/23 06:54:05;;;;;;;1.52;1.20;;;;;;;;;;5054568;28;20504;-48
2023/01/23 06:56:31;;;;;;;2.47;1.40;;;;;;;;;;5053244;28;20393;-50
2023/01/23 06:58:57;;;;;;;4.43;1.63;;;;;;;;;;5053899;28;20021;-48
2023/01/23 07:01:23;;;;;;;2.38;1.48;;;;;;;;;;5054418;28;20408;-45
2023/01/23 07:03:49;;;;;;;1.63;1.30;;;;;;;;;;5052961;28;20029;-46
2023/01/23 07:06:15;;;;;;;2.78;1.30;;;;;;;;;;5039504;28;20934;-44
2023/01/23 07:08:42;;;;;;;2.33;1.40;;;;;;;;;;5068867;28;20037;-48
2023/01/23 07:11:08;;;;;;;2.22;1.55;;;;;;;;;;5074429;28;20477;-49
2023/01/23 07:13:34;;;;;;;2.38;1.30;;;;;;;;;;5072766;28;20028;-51
2023/01/23 07:16:00;;;;;;;3.03;1.80;;;;;;;;;;5074068;28;20071;-50
2023/01/23 07:18:29;;;;;;;4.68;1.73;;;;;;;;;;5073540;28;20032;-44
2023/01/23 07:20:55;;;;;;;3.25;1.70;;;;;;;;;;5061006;28;20052;-46
2023/01/23 07:23:22;;;;;;;3.15;1.30;;;;;;;;;;5069827;28;20118;-45
2023/01/23 07:25:48;;;;;;;3.80;1.73;;;;;;;;;;5068437;28;20017;-46
2023/01/23 07:28:14;;;;;;;1.92;1.50;;;;;;;;;;5076462;28;20166;-46
2023/01/23 07:30:40;;;;;;;1.90;1.45;;;;;;;;;;5074876;28;20100;-45
2023/01/23 07:33:06;;;;;;;3.35;1.85;;;;;;;;;;5068673;28;20033;-45
2023/01/23 07:35:32;;;;;;;2.00;1.38;;;;;;;;;;5066176;28;20488;-47
2023/01/23 07:37:58;;;;;;;3.22;1.50;;;;;;;;;;5072195;28;20021;-47
2023/01/23 07:40:24;;;;;;;2.30;1.70;;;;;;;;;;5072469;28;20377;-42
2023/01/23 07:42:50;;;;;;;7.10;1.70;;;;;;;;;;5072462;28;20031;-45
2023/01/23 07:45:17;;;;;;;1.70;1.58;;;;;;;;;;5072721;28;20031;-45
2023/01/23 07:47:43;;;;;;;3.10;1.88;;;;;;;;;;5063811;28;20385;-45
2023/01/23 07:50:13;;;;;;;2.70;1.45;;;;;;;;;;5063357;28;20027;-44
2023/01/23 07:52:39;;;;;;;1.83;1.50;;;;;;;;;;5066839;28;20021;-45
2023/01/23 07:55:05;;;;;;;3.65;1.63;;;;;;;;;;5063254;28;20778;-45
2023/01/23 07:57:32;;;;;;;2.38;1.60;;;;;;;;;;5068600;28;20040;-43
2023/01/23 07:59:58;;;;;;;3.78;2.10;;;;;;;;;;5069999;28;20051;-46
2023/01/23 08:02:25;;;;;;;2.50;1.55;;;;;;;;;;5066152;28;20024;-42
2023/01/23 08:04:50;;;;;;;2.95;1.90;;;;;;;;;;5066209;28;20051;-47
2023/01/23 08:07:17;;;;;;;2.78;1.83;;;;;;;;;;5067587;28;20127;-45
2023/01/23 08:09:42;;;;;;;1.70;1.55;;;;;;;;;;5064229;28;20469;-45
2023/01/23 08:12:08;;;;;;;2.53;1.70;;;;;;;;;;5069459;28;20036;-45
2023/01/23 08:14:34;;;;;;;3.15;1.80;;;;;;;;;;5066721;28;20469;-44
2023/01/23 08:17:01;;;;;;;1.77;1.55;;;;;;;;;;5060894;28;20055;-45
2023/01/23 08:19:27;;;;;;;2.35;1.67;;;;;;;;;;5061241;28;20373;-43
2023/01/23 08:21:53;;;;;;;3.88;2.25;;;;;;;;;;5069827;28;20021;-44
2023/01/23 08:24:20;;;;;;;3.40;1.40;;;;;;;;;;5076592;28;20020;-45
2023/01/23 08:26:46;;;;;;;2.53;1.77;;;;;;;;;;5071237;28;20020;-44
2023/01/23 08:29:12;;;;;;;2.70;1.85;;;;;;;;;;5073735;28;20039;-44
2023/01/23 08:31:38;;;;;;;2.70;1.85;;;;;;;;;;5069304;28;20029;-43
2023/01/23 08:34:04;;;;;;;5.07;2.75;;;;;;;;;;5068039;28;20021;-43
2023/01/23 08:36:30;;;;;;;3.13;1.83;;;;;;;;;;5070095;28;20488;-44
2023/01/23 08:38:56;;;;;;;3.33;1.92;;;;;;;;;;5071309;28;20074;-44
2023/01/23 08:41:22;;;;;;;3.13;1.90;;;;;;;;;;5076319;28;20423;-45
2023/01/23 08:43:49;;;;;;;3.70;2.20;;;;;;;;;;5072518;28;20520;-44
2023/01/23 08:46:15;;;;;;;3.40;2.17;;;;;;;;;;5071804;28;20393;-44
2023/01/23 08:48:41;;;;;;;2.55;1.92;;;;;;;;;;5077103;28;20044;-45
2023/01/23 08:51:08;;;;;;;2.58;1.75;;;;;;;;;;5071631;28;20028;-45
2023/01/23 08:53:34;;;;;;;3.33;2.17;;;;;;;;;;5075312;28;20099;-44
2023/01/23 08:56:02;;;;;;;2.42;1.90;;;;;;;;;;5076456;28;20032;-45
2023/01/23 08:58:28;;;;;;;2.53;2.05;;;;;;;;;;5066566;28;20111;-43
2023/01/23 09:00:54;;;;;;;5.63;2.90;;;;;;;;;;5071128;28;20104;-45
2023/01/23 09:03:20;;;;;;;3.40;1.95;;;;;;;;;;5071393;28;20048;-44
2023/01/23 09:05:46;;;;;;;2.50;1.90;;;;;;;;;;5069936;28;20677;-44
2023/01/23 09:08:12;;;;;;;3.13;2.00;;;;;;;;;;5071003;28;20033;-45
2023/01/23 09:10:38;;;;;;;3.25;2.20;;;;;;;;;;5070467;28;20021;-45
2023/01/23 09:13:04;;;;;;;3.20;2.00;;;;;;;;;;5071231;28;20484;-45
2023/01/23 09:15:30;;;;;;;5.03;1.95;;;;;;;;;;5064560;28;20032;-45
2023/01/23 09:17:56;;;;;;;4.07;1.92;;;;;;;;;;5067928;28;20025;-45
2023/01/23 09:20:25;;;;;;;3.38;2.28;;;;;;;;;;5052439;28;20024;-45
2023/01/23 09:22:51;;;;;;;4.35;2.85;;;;;;;;;;5067305;28;20052;-46
2023/01/23 09:25:17;;;;;;;3.42;1.83;;;;;;;;;;5063756;28;20021;-45
2023/01/23 09:27:43;;;;;;;3.42;2.10;;;;;;;;;;5064827;28;20474;-44
2023/01/23 09:30:09;;;;;;;2.53;2.13;;;;;;;;;;5070400;28;20029;-44
2023/01/23 09:32:35;;;;;;;2.70;2.00;;;;;;;;;;5069725;28;20035;-46
2023/01/23 09:35:01;;;;;;;3.10;2.10;;;;;;;;;;5061383;28;20028;-46
2023/01/23 09:37:58;;;;;;;3.20;1.90;;;;;;;;;;5068200;28;20048;-43
2023/01/23 09:40:18;;;;;;;3.30;2.53;;;;;;;;;;5063986;28;20390;-45
2023/01/23 09:42:44;;;;;;;2.70;1.98;;;;;;;;;;5071831;28;20381;-46
2023/01/23 09:45:11;;;;;;;3.15;2.28;;;;;;;;;;5069575;28;20365;-46
2023/01/23 09:47:44;;;;;;;3.15;2.15;;;;;;;;;;5063730;28;20029;-50
2023/01/23 09:50:23;;;;;;;2.45;1.88;;;;;;;;;;5071464;28;20444;-46
2023/01/23 09:52:53;;;;;;;4.82;2.15;;;;;;;;;;5070322;28;20037;-49
2023/01/23 09:55:19;;;;;;;3.00;2.10;;;;;;;;;;5068623;28;20048;-46
2023/01/23 09:57:53;;;;;;;4.43;2.60;;;;;;;;;;5068049;28;20033;-47
2023/01/23 10:00:23;;;;;;;3.10;2.00;;;;;;;;;;5072203;28;20035;-46
2023/01/23 10:02:50;;;;;;;3.00;2.10;;;;;;;;;;5070245;28;20098;-47
2023/01/23 10:05:17;;;;;;;5.05;2.58;;;;;;;;;;5063697;28;20075;-45
2023/01/23 10:07:58;;;;;;;2.97;2.13;;;;;;;;;;5065470;28;20032;-47
2023/01/23 10:10:24;;;;;;;3.72;2.30;;;;;;;;;;5070021;28;20028;-47
2023/01/23 10:13:13;;;;;;;4.53;2.25;;;;;;;;;;5070337;28;20029;-46
2023/01/23 10:15:57;;;;;;;5.93;2.30;;;;;;;;;;5064746;28;20063;-48
2023/01/23 10:18:24;;;;;;;5.30;3.15;;;;;;;;;;5070676;28;20035;-48
2023/01/23 10:20:50;;;;;;;3.22;2.40;;;;;;;;;;5069485;28;20021;-45
2023/01/23 10:23:25;;;;;;;3.88;2.70;;;;;;;;;;5070545;28;20025;-44
2023/01/23 10:25:51;;;;;;;3.50;2.47;;;;;;;;;;5069665;28;20028;-46
2023/01/23 10:28:20;;;;;;;4.68;2.47;;;;;;;;;;5070458;28;20036;-46
2023/01/23 10:30:48;;;;;;;2.90;2.30;;;;;;;;;;5067824;28;20023;-45
2023/01/23 10:33:16;;;;;;;6.50;4.30;;;;;;;;;;5065482;28;20107;-47
2023/01/23 10:36:00;;;;;;;7.90;4.68;;;;;;;;;;5072705;28;20081;-45
2023/01/23 10:38:45;;;;;;;6.70;3.78;;;;;;;;;;5061605;28;20470;-43
2023/01/23 10:41:12;;;;;;;5.72;3.38;;;;;;;;;;5067222;28;20032;-45
2023/01/23 10:43:39;;;;;;;5.00;3.17;;;;;;;;;;5062115;28;20021;-46
2023/01/23 10:46:15;;;;;;;4.25;3.03;;;;;;;;;;5077119;28;20032;-45
2023/01/23 10:48:43;;;;;;;4.38;3.20;;;;;;;;;;5072244;28;20428;-46
2023/01/23 10:51:30;;;;;;;4.57;3.20;;;;;;;;;;5081219;28;20063;-46
2023/01/23 10:54:01;;;;;;;4.55;3.08;;;;;;;;;;5047816;28;20363;-47
2023/01/23 10:56:28;;;;;;;4.85;3.08;;;;;;;;;;5061938;28;20123;-44
2023/01/23 10:58:55;;;;;;;6.82;2.63;;;;;;;;;;5068797;28;20033;-46
2023/01/23 11:01:29;;;;;;;6.82;2.85;;;;;;;;;;5073838;28;20032;-48
2023/01/23 11:03:55;;;;;;;4.75;3.05;;;;;;;;;;5073039;28;20028;-45
2023/01/23 11:06:24;;;;;;;4.30;2.95;;;;;;;;;;5067010;28;20710;-48
2023/01/23 11:09:00;;;;;;;5.82;3.72;;;;;;;;;;5077489;28;20773;-46
2023/01/23 11:11:28;;;;;;;6.60;3.30;;;;;;;;;;5076953;28;20358;-44
2023/01/23 11:14:15;;;;;;;4.30;2.33;;;;;;;;;;5067196;28;20418;-47
2023/01/23 11:16:41;;;;;;;4.35;2.92;;;;;;;;;;5066257;28;20021;-48
2023/01/23 11:19:07;;;;;;;3.58;3.03;;;;;;;;;;5072965;28;20028;-48
2023/01/23 11:21:34;;;;;;;4.43;2.47;;;;;;;;;;5072603;28;20492;-46
2023/01/23 11:24:19;;;;;;;4.68;2.85;;;;;;;;;;5069533;28;20012;-49
2023/01/23 11:26:45;;;;;;;4.30;2.25;;;;;;;;;;5068015;28;20162;-45
2023/01/23 11:29:21;;;;;;;3.47;2.67;;;;;;;;;;5072712;28;20017;-47
2023/01/23 11:31:49;;;;;;;7.18;3.80;;;;;;;;;;5057896;28;20097;-46
2023/01/23 11:34:18;;;;;;;5.25;3.05;;;;;;;;;;5073307;28;20032;-47
2023/01/23 11:37:05;;;;;;;4.03;3.00;;;;;;;;;;5070315;28;20029;-47
2023/01/23 11:39:37;;;;;;;4.20;2.60;;;;;;;;;;5070680;28;20031;-44
2023/01/23 11:42:03;;;;;;;5.68;2.92;;;;;;;;;;5072785;28;20145;-49
2023/01/23 11:44:29;;;;;;;4.00;2.75;;;;;;;;;;5073819;28;20055;-44
2023/01/23 11:47:14;;;;;;;4.95;2.72;;;;;;;;;;5077922;28;20410;-45
2023/01/23 11:49:52;;;;;;;4.85;3.13;;;;;;;;;;5064010;28;20029;-45
2023/01/23 11:52:36;;;;;;;4.32;2.70;;;;;;;;;;5061483;28;20039;-47
2023/01/23 11:55:02;;;;;;;4.57;2.95;;;;;;;;;;5065452;28;20024;-48
2023/01/23 11:57:52;;;;;;;3.75;2.67;;;;;;;;;;5068651;28;20025;-43
2023/01/23 12:00:18;;;;;;;4.82;3.10;;;;;;;;;;5071873;28;20420;-45
2023/01/23 12:03:02;;;;;;;4.35;2.97;;;;;;;;;;5071694;28;20029;-45
2023/01/23 12:05:55;;;;;;;3.50;2.42;;;;;;;;;;5066643;28;20055;-44
2023/01/23 12:08:30;;;;;;;5.82;2.75;;;;;;;;;;5050795;28;20041;-46
2023/01/23 12:11:12;;;;;;;4.43;2.50;;;;;;;;;;5072738;28;20028;-45
2023/01/23 12:13:57;;;;;;;3.42;2.80;;;;;;;;;;5061336;28;20108;-44
2023/01/23 12:16:32;;;;;;;5.50;3.17;;;;;;;;;;5071385;28;20029;-44
2023/01/23 12:19:06;;;;;;;7.75;4.07;;;;;;;;;;5072053;28;20046;-45
2023/01/23 12:21:38;;;;;;;7.07;3.53;;;;;;;;;;5062892;28;20100;-45
2023/01/23 12:24:17;;;;;;;7.03;3.40;;;;;;;;;;5071761;28;20031;-43
2023/01/23 12:26:59;;;;;;;7.75;3.80;;;;;;;;;;5071335;28;20538;-46
2023/01/23 12:29:43;;;;;;;7.50;3.10;;;;;;;;;;5071582;28;20408;-44
2023/01/23 12:32:26;;;;;;;7.07;3.58;;;;;;;;;;5058727;28;20504;-46
2023/01/23 12:34:55;;;;;;;6.00;3.53;;;;;;;;;;5059793;28;20503;-48
2023/01/23 12:37:21;;;;;;;8.10;3.53;;;;;;;;;;5063404;28;20040;-46
2023/01/23 12:39:59;;;;;;;7.32;4.28;;;;;;;;;;5070188;28;20643;-44
2023/01/23 12:42:31;;;;;;;5.35;3.38;;;;;;;;;;5073346;28;20035;-42
2023/01/23 12:44:57;;;;;;;4.97;2.72;;;;;;;;;;5072321;28;20031;-44
2023/01/23 12:47:35;;;;;;;6.18;3.72;;;;;;;;;;5066329;28;20032;-46
2023/01/23 12:50:03;;;;;;;6.85;3.30;;;;;;;;;;5060152;28;20486;-46
2023/01/23 12:52:32;;;;;;;6.72;4.85;;;;;;;;;;5055769;28;20454;-44
2023/01/23 12:55:21;;;;;;;5.40;3.55;;;;;;;;;;5064837;28;20040;-47
2023/01/23 12:57:53;;;;;;;7.18;3.63;;;;;;;;;;5021510;28;20041;-46
2023/01/23 13:00:25;;;;;;;5.68;3.28;;;;;;;;;;5056467;28;20028;-49
2023/01/23 13:02:51;;;;;;;10.25;3.97;;;;;;;;;;5062413;28;20020;-45
2023/01/23 13:05:20;;;;;;;7.15;3.10;;;;;;;;;;5059374;28;20051;-46
2023/01/23 13:07:52;;;;;;;6.75;3.70;;;;;;;;;;5052677;28;20653;-45
2023/01/23 13:10:18;;;;;;;5.55;3.17;;;;;;;;;;5055994;28;20029;-45
2023/01/23 13:12:44;;;;;;;7.43;3.75;;;;;;;;;;5055856;28;20027;-49
2023/01/23 13:15:18;;;;;;;6.75;3.60;;;;;;;;;;5040803;28;20028;-47
2023/01/23 13:17:47;;;;;;;9.27;3.92;;;;;;;;;;5064576;28;20094;-45
2023/01/23 13:23:32;;;;;;;5.05;3.42;;;;;;;;;;5071003;28;20081;-44
2023/01/23 13:26:21;;;;;;;5.15;3.17;;;;;;;;;;5070623;28;20024;-48
2023/01/23 13:28:49;;;;;;;6.55;3.35;;;;;;;;;;5057385;28;20037;-44
2023/01/23 13:31:34;;;;;;;6.65;3.58;;;;;;;;;;5054129;28;20021;-45
2023/01/23 13:34:01;;;;;;;4.97;3.10;;;;;;;;;;5059724;28;20485;-44
2023/01/23 13:36:29;;;;;;;4.05;2.80;;;;;;;;;;5056455;28;20040;-43
2023/01/23 13:39:13;;;;;;;4.93;3.53;;;;;;;;;;5062599;28;20028;-45
2023/01/23 13:41:39;;;;;;;5.90;3.65;;;;;;;;;;5056804;28;20025;-45
2023/01/23 13:44:14;;;;;;;6.88;3.35;;;;;;;;;;5062580;28;20504;-45
2023/01/23 13:46:40;;;;;;;5.63;3.70;;;;;;;;;;5060567;28;20106;-46
2023/01/23 13:57:51;;;;;;;4.28;2.72;;;;;;;;;;5002814;28;20425;-45
2023/01/23 14:00:19;;;;;;;4.55;3.30;;;;;;;;;;5070826;28;20025;-45
2023/01/23 14:06:09;;;;;;;5.97;3.25;;;;;;;;;;5029026;28;20122;-46
2023/01/23 14:08:46;;;;;;;6.55;3.50;;;;;;;;;;5060658;28;20496;-44
2023/01/23 14:11:13;;;;;;;6.30;3.72;;;;;;;;;;5070648;28;20056;-44
2023/01/23 14:13:45;;;;;;;8.38;4.07;;;;;;;;;;5061988;28;20024;-46
2023/01/23 14:16:16;;;;;;;6.25;3.88;;;;;;;;;;5069895;28;20112;-45
2023/01/23 14:18:43;;;;;;;4.40;3.15;;;;;;;;;;5060871;28;20037;-45
2023/01/23 14:21:34;;;;;;;5.13;3.00;;;;;;;;;;5064645;28;20064;-45
2023/01/23 14:24:02;;;;;;;5.47;3.33;;;;;;;;;;5076920;28;20086;-44
2023/01/23 14:26:33;;;;;;;5.13;3.35;;;;;;;;;;5057845;28;20043;-43
2023/01/23 14:29:02;;;;;;;6.05;2.83;;;;;;;;;;5068074;28;20381;-45
2023/01/23 14:31:36;;;;;;;6.05;3.25;;;;;;;;;;5071367;28;20051;-43
2023/01/23 14:34:06;;;;;;;5.60;3.47;;;;;;;;;;5064182;28;20330;-44
2023/01/23 14:36:32;;;;;;;4.85;3.00;;;;;;;;;;5067806;28;20025;-45
2023/01/23 14:38:59;;;;;;;5.72;2.83;;;;;;;;;;5066503;28;20020;-46
2023/01/23 14:41:27;;;;;;;6.93;3.40;;;;;;;;;;5067305;28;20048;-44
2023/01/23 14:43:54;;;;;;;6.05;3.88;;;;;;;;;;5067770;28;20029;-45
2023/01/23 14:46:25;;;;;;;6.03;3.25;;;;;;;;;;5054370;28;20029;-45
2023/01/23 14:48:53;;;;;;;4.97;3.15;;;;;;;;;;5068360;28;20075;-44
2023/01/23 14:51:21;;;;;;;4.47;2.83;;;;;;;;;;5073455;28;20020;-44
2023/01/23 14:54:10;;;;;;;4.50;2.90;;;;;;;;;;5069065;28;20670;-43
2023/01/23 14:56:37;;;;;;;5.40;3.15;;;;;;;;;;5065545;28;20060;-45
2023/01/23 14:59:04;;;;;;;5.22;3.00;;;;;;;;;;5068235;28;20031;-45
2023/01/23 15:01:30;;;;;;;4.95;3.13;;;;;;;;;;5070806;28;20063;-44
2023/01/23 15:04:01;;;;;;;5.75;3.55;;;;;;;;;;5062364;28;20024;-47
2023/01/23 15:06:28;;;;;;;5.23;3.47;;;;;;;;;;5065690;28;20025;-43
2023/01/23 15:09:03;;;;;;;5.70;2.90;;;;;;;;;;5073312;28;20037;-45
2023/01/23 15:11:29;;;;;;;4.35;3.22;;;;;;;;;;5069655;28;20040;-45
2023/01/23 15:14:00;;;;;;;5.50;3.30;;;;;;;;;;5063286;28;20470;-46
2023/01/23 15:16:30;;;;;;;6.35;3.35;;;;;;;;;;5069545;28;20130;-43